createdAt,value
2017-05-30T00:00:42.617Z,0
2017-05-30T00:03:07.216Z,0
2017-05-30T00:05:31.807Z,0
2017-05-30T00:07:56.397Z,0
2017-05-30T00:10:12.530Z,0
2017-05-30T00:12:37.215Z,0
2017-05-30T00:14:44.936Z,0
2017-05-30T00:17:09.479Z,0
2017-05-30T00:19:25.564Z,0
2017-05-30T00:21:50.163Z,0
2017-05-30T00:24:06.286Z,0
2017-05-30T00:26:30.850Z,0
2017-05-30T00:28:55.439Z,0
2017-05-30T00:33:21.512Z,0
2017-05-30T00:35:37.616Z,0
2017-05-30T00:38:02.164Z,0
2017-05-30T00:40:26.743Z,0
2017-05-30T00:42:51.345Z,0
2017-05-30T00:47:17.345Z,0
2017-05-30T00:49:41.899Z,0
2017-05-30T00:52:06.484Z,0
2017-05-30T00:54:31.075Z,0
2017-05-30T00:56:55.706Z,0
2017-05-30T00:59:20.266Z,0
2017-05-30T01:01:44.873Z,0
2017-05-30T01:04:09.462Z,0
2017-05-30T01:06:34.068Z,0
2017-05-30T01:08:58.655Z,0
2017-05-30T01:11:23.247Z,0
2017-05-30T01:13:47.844Z,0
2017-05-30T01:16:12.442Z,0
2017-05-30T01:18:37.030Z,0
2017-05-30T01:20:47.132Z,0
2017-05-30T01:23:11.786Z,0
2017-05-30T01:25:36.372Z,0
2017-05-30T01:27:52.415Z,0
2017-05-30T01:30:16.955Z,0
2017-05-30T01:32:33.064Z,0
2017-05-30T01:34:57.649Z,0
2017-05-30T01:37:22.243Z,0
2017-05-30T01:39:32.306Z,0
2017-05-30T01:41:42.345Z,0
2017-05-30T01:44:06.948Z,0
2017-05-30T01:46:31.538Z,0
2017-05-30T01:50:57.637Z,0
2017-05-30T01:53:13.775Z,0
2017-05-30T01:55:38.381Z,0
2017-05-30T01:57:54.505Z,0
2017-05-30T02:00:19.060Z,0
2017-05-30T02:02:35.152Z,0
2017-05-30T02:04:59.764Z,0
2017-05-30T02:07:24.378Z,0
2017-05-30T02:09:40.433Z,0
2017-05-30T02:12:05.033Z,0
2017-05-30T02:14:29.627Z,0
2017-05-30T02:16:54.217Z,0
2017-05-30T02:19:18.813Z,0
2017-05-30T02:21:43.400Z,0
2017-05-30T02:24:07.994Z,0
2017-05-30T02:26:32.609Z,0
2017-05-30T02:28:57.191Z,0
2017-05-30T02:31:13.319Z,0
2017-05-30T02:33:37.869Z,0
2017-05-30T02:36:02.474Z,0
2017-05-30T02:38:18.600Z,0
2017-05-30T02:40:43.054Z,0
2017-05-30T02:43:07.543Z,0
2017-05-30T02:45:32.031Z,0
2017-05-30T02:47:56.524Z,0
2017-05-30T02:50:21.019Z,0
2017-05-30T02:52:45.612Z,0
2017-05-30T02:56:57.651Z,0
2017-05-30T02:59:22.216Z,0
2017-05-30T03:01:46.702Z,0
2017-05-30T03:04:02.794Z,0
2017-05-30T03:06:18.889Z,0
2017-05-30T03:10:36.396Z,4
2017-05-30T03:13:00.941Z,8
2017-05-30T03:15:25.430Z,8
2017-05-30T03:17:49.924Z,8
2017-05-30T03:20:14.391Z,12
2017-05-30T03:22:30.385Z,16
2017-05-30T03:24:54.875Z,16
2017-05-30T03:27:10.921Z,20
2017-05-30T03:29:35.373Z,24
2017-05-30T03:31:59.863Z,28
2017-05-30T03:34:15.907Z,36
2017-05-30T03:36:26.056Z,40
2017-05-30T03:38:50.613Z,44
2017-05-30T03:41:15.109Z,48
2017-05-30T03:43:31.139Z,52
2017-05-30T03:45:55.696Z,60
2017-05-30T03:48:11.723Z,68
2017-05-30T03:50:36.281Z,76
2017-05-30T03:52:52.411Z,88
2017-05-30T03:55:16.975Z,108
2017-05-30T03:57:41.572Z,124
2017-05-30T04:00:06.155Z,136
2017-05-30T04:02:22.260Z,140
2017-05-30T04:04:46.852Z,144
2017-05-30T04:07:11.342Z,148
2017-05-30T04:09:21.396Z,140
2017-05-30T04:11:45.985Z,128
2017-05-30T04:16:12.088Z,124
2017-05-30T04:18:28.232Z,124
2017-05-30T04:20:52.826Z,132
2017-05-30T04:23:17.420Z,144
2017-05-30T04:25:33.557Z,160
2017-05-30T04:27:58.111Z,172
2017-05-30T04:30:22.709Z,188
2017-05-30T04:32:47.307Z,200
2017-05-30T04:35:11.885Z,208
2017-05-30T04:37:36.480Z,212
2017-05-30T04:40:00.991Z,216
2017-05-30T04:42:25.573Z,216
2017-05-30T04:46:52.163Z,240
2017-05-30T04:49:16.713Z,248
2017-05-30T04:51:41.359Z,252
2017-05-30T04:54:05.907Z,268
2017-05-30T04:56:30.402Z,264
2017-05-30T04:58:55.000Z,276
2017-05-30T05:01:19.585Z,284
2017-05-30T05:03:27.219Z,292
2017-05-30T05:05:43.314Z,300
2017-05-30T05:08:07.872Z,316
2017-05-30T05:10:23.998Z,328
2017-05-30T05:12:48.452Z,324
2017-05-30T05:17:14.527Z,332
2017-05-30T05:19:39.090Z,340
2017-05-30T05:21:55.125Z,344
2017-05-30T05:24:19.675Z,344
2017-05-30T05:26:44.167Z,340
2017-05-30T05:29:08.654Z,348
2017-05-30T05:31:33.162Z,356
2017-05-30T05:33:49.246Z,372
2017-05-30T05:36:05.230Z,392
2017-05-30T05:38:29.732Z,420
2017-05-30T05:40:45.816Z,436
2017-05-30T05:42:53.375Z,464
2017-05-30T05:45:09.412Z,496
2017-05-30T05:47:33.897Z,548
2017-05-30T05:49:50.000Z,568
2017-05-30T05:52:14.489Z,632
2017-05-30T05:54:30.504Z,628
2017-05-30T05:56:54.986Z,588
2017-05-30T05:59:11.068Z,564
2017-05-30T06:01:35.573Z,532
2017-05-30T06:04:00.066Z,496
2017-05-30T06:06:16.146Z,484
2017-05-30T06:08:32.188Z,472
2017-05-30T06:10:56.743Z,476
2017-05-30T06:13:12.833Z,496
2017-05-30T06:15:38.341Z,516
2017-05-30T06:18:02.839Z,548
2017-05-30T06:20:27.327Z,596
2017-05-30T06:22:51.827Z,620
2017-05-30T06:25:16.415Z,668
2017-05-30T06:27:40.847Z,712
2017-05-30T06:30:05.399Z,756
2017-05-30T06:32:29.884Z,780
2017-05-30T06:34:54.371Z,844
2017-05-30T06:37:18.835Z,888
2017-05-30T06:39:43.308Z,920
2017-05-30T06:44:09.286Z,1008
2017-05-30T06:46:10.850Z,1028
2017-05-30T06:48:35.342Z,1052
2017-05-30T06:50:59.780Z,1040
2017-05-30T06:53:01.378Z,1076
2017-05-30T06:55:17.420Z,1108
2017-05-30T06:57:33.444Z,1144
2017-05-30T06:59:57.928Z,1208
2017-05-30T07:02:22.360Z,1276
2017-05-30T07:04:46.816Z,1320
2017-05-30T07:07:11.267Z,1400
2017-05-30T07:09:35.663Z,1428
2017-05-30T07:11:51.646Z,1432
2017-05-30T07:14:16.112Z,1568
2017-05-30T07:16:40.575Z,1616
2017-05-30T07:19:05.044Z,1700
2017-05-30T07:21:30.542Z,1880
2017-05-30T07:23:46.568Z,2104
2017-05-30T07:26:11.067Z,2204
2017-05-30T07:28:21.143Z,2620
2017-05-30T07:30:45.712Z,5700
2017-05-30T07:33:10.256Z,7580
2017-05-30T07:35:26.382Z,2664
2017-05-30T07:37:50.940Z,2528
2017-05-30T07:40:07.046Z,2712
2017-05-30T07:42:23.201Z,2992
2017-05-30T07:46:49.897Z,2084
2017-05-30T07:49:14.576Z,2024
2017-05-30T07:51:39.250Z,1976
2017-05-30T07:53:55.462Z,2104
2017-05-30T07:56:20.136Z,2408
2017-05-30T07:58:44.836Z,2948
2017-05-30T08:01:09.527Z,2776
2017-05-30T08:03:34.210Z,2892
2017-05-30T08:05:58.917Z,3092
2017-05-30T08:08:23.617Z,3048
2017-05-30T08:10:48.322Z,3052
2017-05-30T08:13:13.052Z,3236
2017-05-30T08:15:37.779Z,3396
2017-05-30T08:17:54.042Z,4288
2017-05-30T08:20:18.754Z,4696
2017-05-30T08:22:43.537Z,4272
2017-05-30T08:25:08.349Z,4344
2017-05-30T08:27:33.161Z,5620
2017-05-30T08:29:49.526Z,4220
2017-05-30T08:32:05.873Z,3740
2017-05-30T08:34:30.709Z,3880
2017-05-30T08:36:55.510Z,3744
2017-05-30T08:39:20.343Z,3644
2017-05-30T08:41:45.189Z,3496
2017-05-30T08:44:01.559Z,3612
2017-05-30T08:46:26.398Z,4264
2017-05-30T08:48:51.248Z,4348
2017-05-30T08:51:16.109Z,4976
2017-05-30T08:55:42.699Z,6784
2017-05-30T08:58:07.690Z,6820
2017-05-30T09:00:24.206Z,6648
2017-05-30T09:02:49.217Z,5996
2017-05-30T09:05:14.243Z,5868
2017-05-30T09:07:39.283Z,5432
2017-05-30T09:09:55.833Z,5488
2017-05-30T09:12:20.845Z,5292
2017-05-30T09:14:45.903Z,5220
2017-05-30T09:17:10.961Z,5392
2017-05-30T09:19:36.023Z,4912
2017-05-30T09:21:52.562Z,5172
2017-05-30T09:24:17.642Z,4924
2017-05-30T09:26:42.711Z,4560
2017-05-30T09:28:59.235Z,4252
2017-05-30T09:31:24.307Z,4292
2017-05-30T09:33:40.881Z,4324
2017-05-30T09:36:05.982Z,4648
2017-05-30T09:38:16.218Z,7176
2017-05-30T09:40:32.844Z,8404
2017-05-30T09:44:51.157Z,6728
2017-05-30T09:49:02.312Z,5884
2017-05-30T09:51:27.608Z,7988
2017-05-30T09:53:52.910Z,7352
2017-05-30T09:56:09.737Z,6920
2017-05-30T09:58:35.106Z,6500
2017-05-30T10:01:00.494Z,4880
2017-05-30T10:03:25.846Z,5344
2017-05-30T10:05:51.231Z,5972
2017-05-30T10:08:01.558Z,5624
2017-05-30T10:10:26.921Z,5340
2017-05-30T10:12:52.251Z,5216
2017-05-30T10:15:17.601Z,5476
2017-05-30T10:17:42.920Z,4760
2017-05-30T10:20:08.245Z,4896
2017-05-30T10:22:33.573Z,4500
2017-05-30T10:24:58.872Z,5064
2017-05-30T10:27:15.657Z,4808
2017-05-30T10:29:40.951Z,5008
2017-05-30T10:31:57.725Z,4920
2017-05-30T10:34:22.998Z,4920
2017-05-30T10:36:39.744Z,4532
2017-05-30T10:39:05.034Z,5076
2017-05-30T10:41:30.345Z,4872
2017-05-30T10:43:55.624Z,4576
2017-05-30T10:46:20.907Z,5328
2017-05-30T10:50:39.379Z,5080
2017-05-30T10:53:04.729Z,5180
2017-05-30T10:55:29.994Z,4472
2017-05-30T10:57:55.281Z,4536
2017-05-30T11:00:20.607Z,3372
2017-05-30T11:02:31.422Z,3300
2017-05-30T11:04:56.763Z,3224
2017-05-30T11:07:22.048Z,3440
2017-05-30T11:09:47.351Z,3692
2017-05-30T11:12:12.657Z,3568
2017-05-30T11:14:37.960Z,4856
2017-05-30T11:17:03.247Z,3968
2017-05-30T11:19:28.520Z,3980
2017-05-30T11:21:53.776Z,3984
2017-05-30T11:24:19.035Z,3760
2017-05-30T11:26:35.834Z,4136
2017-05-30T11:29:01.113Z,4884
2017-05-30T11:31:26.400Z,4428
2017-05-30T11:33:51.704Z,4252
2017-05-30T11:36:08.534Z,4612
2017-05-30T11:38:33.887Z,4232
2017-05-30T11:40:59.249Z,4648
2017-05-30T11:45:34.862Z,4204
2017-05-30T11:50:01.977Z,3528
2017-05-30T11:52:18.859Z,3564
2017-05-30T11:54:44.238Z,3852
2017-05-30T11:57:09.622Z,3876
2017-05-30T11:59:35.041Z,3320
2017-05-30T12:02:00.434Z,3332
2017-05-30T12:04:25.785Z,3244
2017-05-30T12:06:51.179Z,3028
2017-05-30T12:09:08.071Z,3116
2017-05-30T12:11:33.401Z,2856
2017-05-30T12:13:58.711Z,2660
2017-05-30T12:15:58.479Z,2312
2017-05-30T12:18:23.769Z,2224
2017-05-30T12:20:48.964Z,2188
2017-05-30T12:23:05.680Z,2204
2017-05-30T12:25:30.860Z,2352
2017-05-30T12:27:56.062Z,2552
2017-05-30T12:30:21.273Z,2608
2017-05-30T12:32:37.957Z,2808
2017-05-30T12:35:03.081Z,3040
2017-05-30T12:39:29.906Z,3376
2017-05-30T12:41:46.620Z,3288
2017-05-30T12:44:03.333Z,3312
2017-05-30T12:48:30.185Z,3812
2017-05-30T12:50:55.447Z,3572
2017-05-30T12:53:20.662Z,3260
2017-05-30T12:55:45.903Z,3000
2017-05-30T12:58:11.161Z,2740
2017-05-30T13:00:36.410Z,2688
2017-05-30T13:04:54.787Z,2820
2017-05-30T13:07:20.014Z,2636
2017-05-30T13:09:45.181Z,2424
2017-05-30T13:12:10.371Z,2416
2017-05-30T13:14:35.522Z,2676
2017-05-30T13:19:02.251Z,3044
2017-05-30T13:21:27.401Z,2784
2017-05-30T13:23:52.476Z,2728
2017-05-30T13:26:17.494Z,2520
2017-05-30T13:28:42.491Z,2456
2017-05-30T13:30:50.495Z,2456
2017-05-30T13:33:15.509Z,2440
2017-05-30T13:35:40.501Z,2156
2017-05-30T13:38:05.473Z,1896
2017-05-30T13:40:13.486Z,1540
2017-05-30T13:42:38.399Z,1564
2017-05-30T13:45:03.314Z,1476
2017-05-30T13:47:28.184Z,1368
2017-05-30T13:51:54.563Z,1280
2017-05-30T13:54:19.404Z,1228
2017-05-30T13:56:44.182Z,1108
2017-05-30T13:59:08.988Z,1076
2017-05-30T14:01:33.763Z,1028
2017-05-30T14:03:50.054Z,868
2017-05-30T14:06:14.829Z,636
2017-05-30T14:08:39.552Z,688
2017-05-30T14:11:04.234Z,1060
2017-05-30T14:13:28.971Z,1748
2017-05-30T14:15:53.719Z,2416
2017-05-30T14:18:18.477Z,2884
2017-05-30T14:20:43.223Z,2076
2017-05-30T14:23:07.970Z,1288
2017-05-30T14:25:24.230Z,1008
2017-05-30T14:27:48.981Z,928
2017-05-30T14:32:15.762Z,996
2017-05-30T14:34:40.519Z,996
2017-05-30T14:37:05.224Z,928
2017-05-30T14:39:21.492Z,884
2017-05-30T14:41:46.232Z,812
2017-05-30T14:44:10.952Z,768
2017-05-30T14:46:35.623Z,736
2017-05-30T14:49:00.348Z,760
2017-05-30T14:51:10.489Z,776
2017-05-30T14:53:35.202Z,748
2017-05-30T14:55:59.921Z,712
2017-05-30T14:58:24.623Z,708
2017-05-30T15:00:49.317Z,704
2017-05-30T15:03:14.004Z,684
2017-05-30T15:05:38.675Z,640
2017-05-30T15:08:03.368Z,592
2017-05-30T15:10:19.598Z,556
2017-05-30T15:12:44.314Z,516
2017-05-30T15:15:08.983Z,476
2017-05-30T15:17:33.637Z,428
2017-05-30T15:21:51.360Z,356
2017-05-30T15:24:07.559Z,348
2017-05-30T15:26:32.192Z,328
2017-05-30T15:28:56.820Z,344
2017-05-30T15:31:21.404Z,364
2017-05-30T15:33:46.023Z,372
2017-05-30T15:36:10.660Z,372
2017-05-30T15:38:35.289Z,348
2017-05-30T15:40:51.439Z,320
2017-05-30T15:43:16.057Z,300
2017-05-30T15:45:32.222Z,284
2017-05-30T15:47:56.787Z,264
2017-05-30T15:50:12.915Z,244
2017-05-30T15:52:37.509Z,232
2017-05-30T15:55:02.053Z,244
2017-05-30T15:57:18.166Z,260
2017-05-30T15:59:42.735Z,308
2017-05-30T16:01:58.849Z,384
2017-05-30T16:04:14.937Z,508
2017-05-30T16:06:39.486Z,660
2017-05-30T16:09:04.058Z,844
2017-05-30T16:11:28.625Z,1028
2017-05-30T16:13:53.217Z,1216
2017-05-30T16:16:17.785Z,1248
2017-05-30T16:18:42.343Z,1300
2017-05-30T16:21:06.940Z,1236
2017-05-30T16:23:31.575Z,1292
2017-05-30T16:25:56.214Z,1308
2017-05-30T16:28:20.858Z,1440
2017-05-30T16:30:30.949Z,1588
2017-05-30T16:32:51.317Z,1756
2017-05-30T16:34:52.966Z,1848
2017-05-30T16:37:17.686Z,1852
2017-05-30T16:39:42.357Z,1856
2017-05-30T16:42:07.055Z,1788
2017-05-30T16:44:31.700Z,1864
2017-05-30T16:46:56.355Z,1980
2017-05-30T16:49:12.548Z,2036
2017-05-30T16:51:37.266Z,2200
2017-05-30T16:53:53.504Z,2340
2017-05-30T16:56:09.778Z,2428
2017-05-30T16:58:34.510Z,2352
2017-05-30T17:00:59.217Z,2144
2017-05-30T17:03:23.949Z,2184
2017-05-30T17:05:48.695Z,2120
2017-05-30T17:07:58.835Z,1900
2017-05-30T17:10:00.488Z,1896
2017-05-30T17:12:25.299Z,1836
2017-05-30T17:14:50.084Z,1760
2017-05-30T17:17:14.858Z,1732
2017-05-30T17:19:39.586Z,1688
2017-05-30T17:21:55.788Z,1692
2017-05-30T17:24:12.055Z,1568
2017-05-30T17:26:36.796Z,1560
2017-05-30T17:29:01.566Z,1540
2017-05-30T17:31:26.310Z,1504
2017-05-30T17:33:42.585Z,1572
2017-05-30T17:36:07.316Z,1520
2017-05-30T17:38:31.992Z,1492
2017-05-30T17:40:56.677Z,1520
2017-05-30T17:43:21.358Z,1520
2017-05-30T17:45:37.618Z,1460
2017-05-30T17:49:38.959Z,1360
2017-05-30T17:52:03.672Z,1288
2017-05-30T17:54:28.376Z,1220
2017-05-30T17:56:53.033Z,1172
2017-05-30T17:59:17.679Z,1140
2017-05-30T18:01:42.373Z,1112
2017-05-30T18:04:07.037Z,1088
2017-05-30T18:06:23.236Z,1072
2017-05-30T18:08:47.847Z,1072
2017-05-30T18:11:12.470Z,1016
2017-05-30T18:13:37.109Z,996
2017-05-30T18:16:01.705Z,972
2017-05-30T18:18:26.311Z,892
2017-05-30T18:22:52.422Z,864
2017-05-30T18:25:17.069Z,844
2017-05-30T18:27:41.626Z,780
2017-05-30T18:30:06.239Z,744
2017-05-30T18:32:30.800Z,700
2017-05-30T18:34:55.414Z,652
2017-05-30T18:39:21.539Z,560
2017-05-30T18:41:29.203Z,524
2017-05-30T18:43:45.263Z,484
2017-05-30T18:45:46.887Z,452
2017-05-30T18:48:11.450Z,412
2017-05-30T18:50:36.030Z,372
2017-05-30T18:52:46.045Z,340
2017-05-30T18:55:02.185Z,308
2017-05-30T18:57:26.748Z,276
2017-05-30T18:59:42.820Z,248
2017-05-30T19:01:58.866Z,216
2017-05-30T19:04:23.397Z,188
2017-05-30T19:06:39.464Z,160
2017-05-30T19:09:04.057Z,140
2017-05-30T19:11:28.653Z,120
2017-05-30T19:13:53.242Z,100
2017-05-30T19:18:11.407Z,64
2017-05-30T19:20:36.983Z,56
2017-05-30T19:23:01.386Z,44
2017-05-30T19:25:25.916Z,32
2017-05-30T19:27:50.467Z,24
2017-05-30T19:30:15.013Z,16
2017-05-30T19:32:39.550Z,12
2017-05-30T19:35:04.116Z,8
2017-05-30T19:37:28.669Z,8
2017-05-30T19:39:53.215Z,4
2017-05-30T19:42:09.296Z,4
2017-05-30T19:44:34.844Z,4
2017-05-30T19:47:00.335Z,4
2017-05-30T19:49:10.905Z,0
2017-05-30T19:51:21.494Z,0
2017-05-30T19:53:46.043Z,0
2017-05-30T19:56:10.507Z,0
2017-05-30T19:58:36.023Z,0
2017-05-30T20:00:43.594Z,0
2017-05-30T20:03:10.081Z,0
2017-05-30T20:05:34.563Z,0
2017-05-30T20:07:58.999Z,0
2017-05-30T20:10:15.041Z,0
2017-05-30T20:12:31.083Z,0
2017-05-30T20:14:47.099Z,0
2017-05-30T20:17:12.587Z,0
2017-05-30T20:19:29.607Z,0
2017-05-30T20:23:29.966Z,0
2017-05-30T20:25:54.498Z,0
2017-05-30T20:28:19.003Z,0
2017-05-30T20:32:36.512Z,0
2017-05-30T20:34:52.513Z,0
2017-05-30T20:37:02.537Z,0
2017-05-30T20:39:26.987Z,0
2017-05-30T20:41:51.440Z,0
2017-05-30T20:44:15.898Z,0
2017-05-30T20:46:31.866Z,0
2017-05-30T20:48:56.299Z,0
2017-05-30T20:51:12.251Z,0
2017-05-30T20:53:36.661Z,0
2017-05-30T20:56:01.064Z,0
2017-05-30T20:58:25.475Z,0
2017-05-30T21:00:49.858Z,0
2017-05-30T21:03:14.307Z,0
2017-05-30T21:05:38.819Z,0
2017-05-30T21:08:03.283Z,0
2017-05-30T21:10:27.794Z,0
2017-05-30T21:12:52.174Z,0
2017-05-30T21:14:53.787Z,0
2017-05-30T21:17:18.209Z,0
2017-05-30T21:19:42.586Z,0
2017-05-30T21:22:06.992Z,0
2017-05-30T21:24:22.982Z,0
2017-05-30T21:26:47.371Z,0
2017-05-30T21:29:11.757Z,0
2017-05-30T21:31:36.144Z,0
2017-05-30T21:34:00.529Z,0
2017-05-30T21:36:24.921Z,0
2017-05-30T21:38:49.312Z,0
2017-05-30T21:41:13.707Z,0
2017-05-30T21:43:38.099Z,0
2017-05-30T21:46:02.487Z,0
2017-05-30T21:48:26.865Z,0
2017-05-30T21:50:51.270Z,0
2017-05-30T21:53:15.639Z,0
2017-05-30T21:55:31.575Z,0
2017-05-30T21:57:55.926Z,0
2017-05-30T22:00:20.315Z,0
2017-05-30T22:02:36.191Z,0
2017-05-30T22:05:00.477Z,0
2017-05-30T22:07:24.865Z,0
2017-05-30T22:09:49.266Z,0
2017-05-30T22:12:13.653Z,0
2017-05-30T22:16:39.486Z,0
2017-05-30T22:19:03.868Z,0
2017-05-30T22:21:28.260Z,0
2017-05-30T22:23:44.197Z,0
2017-05-30T22:26:08.529Z,0
2017-05-30T22:28:32.822Z,0
2017-05-30T22:30:57.118Z,0
2017-05-30T22:33:21.502Z,0
2017-05-30T22:35:45.888Z,0
2017-05-30T22:38:10.171Z,0
2017-05-30T22:40:26.010Z,0
2017-05-30T22:42:50.366Z,0
2017-05-30T22:45:14.734Z,0
2017-05-30T22:47:39.035Z,0
2017-05-30T22:50:03.311Z,0
2017-05-30T22:52:27.626Z,0
2017-05-30T22:54:51.899Z,0
2017-05-30T22:57:07.768Z,0
2017-05-30T22:59:32.061Z,0
2017-05-30T23:01:56.338Z,0
2017-05-30T23:04:20.626Z,0
2017-05-30T23:06:44.921Z,0
2017-05-30T23:09:09.204Z,0
2017-05-30T23:11:33.477Z,0
2017-05-30T23:15:59.228Z,0
2017-05-30T23:18:23.507Z,0
2017-05-30T23:20:47.803Z,0
2017-05-30T23:23:12.085Z,0
2017-05-30T23:25:36.377Z,0
2017-05-30T23:28:00.663Z,0
2017-05-30T23:30:24.959Z,0
2017-05-30T23:32:40.811Z,0
2017-05-30T23:35:05.136Z,0
2017-05-30T23:37:20.973Z,0
2017-05-30T23:39:36.809Z,0
2017-05-30T23:41:52.641Z,0
2017-05-30T23:44:16.969Z,0
2017-05-30T23:46:41.254Z,0
2017-05-30T23:48:57.102Z,0
2017-05-30T23:51:12.950Z,0
2017-05-30T23:53:37.229Z,0
2017-05-30T23:56:01.520Z,0
2017-05-30T23:58:25.814Z,0
